This is the latest recevied weather packets stored in our database for station/object NT9M-13. If no packets are shown the sender has not sent any weather packets the latest 10 day(s).
| Time | Temp. | Humidity | Pressure | Rain* | Wind** | Luminosity | Snow |
|---|---|---|---|---|---|---|---|
| 1778243376 | 10° C | 91% | 1012 hPa | 0 mm | - | - | - |
| 1778242176 | 9.44° C | 92% | 1011.9 hPa | 0 mm | - | - | - |
| 1778233776 | 8.33° C | 92% | 1011.9 hPa | 0 mm | - | - | - |
| 1778224777 | 8.33° C | 92% | 1011.8 hPa | 0 mm | - | - | - |
| 1778217577 | 8.89° C | 90% | 1012.3 hPa | 0 mm | - | - | - |
| 1778205578 | 10.56° C | 85% | 1012.3 hPa | 0.25 mm | - | - | - |
| 1778200177 | 12.22° C | 69% | 1011.8 hPa | 0 mm | - | - | - |
| 1778198377 | 12.22° C | 68% | 1011.7 hPa | 0 mm | - | - | - |
| 1778195378 | 12.78° C | 70% | 1011.9 hPa | 0 mm | - | - | - |
| 1778191177 | 15° C | 54% | 1012.1 hPa | 0 mm | - | - | - |
| 1778188778 | 15° C | 52% | 1012.5 hPa | 0 mm | - | - | - |
| 1778185178 | 17.22° C | 45% | 1012.7 hPa | 0 mm | - | - | - |
| 1778183377 | 16.67° C | 46% | 1013.1 hPa | 0 mm | - | - | - |
| 1778176777 | 17.22° C | 49% | 1014.1 hPa | 0 mm | - | - | - |
| 1778173177 | 17.22° C | 47% | 1014.9 hPa | 0 mm | - | - | - |
| 1778171377 | 16.67° C | 50% | 1015.2 hPa | 0 mm | - | - | - |
| 1778167778 | 14.44° C | 56% | 1015.2 hPa | 0 mm | - | - | - |
| 1778164178 | 11.67° C | 59% | 1015.1 hPa | 0 mm | - | - | - |
| 1778159978 | 9.44° C | 70% | 1015.1 hPa | 0 mm | - | - | - |
| 1778157578 | 7.78° C | 76% | 1014.9 hPa | 0 mm | - | - | - |
| 1778155179 | 6.11° C | 82% | 1015 hPa | 0 mm | - | - | - |
| 1778153978 | 5.56° C | 83% | 1014.9 hPa | 0 mm | - | - | - |
| 1778150979 | 5.56° C | 82% | 1014.3 hPa | 0 mm | - | - | - |
| 1778148579 | 6.11° C | 81% | 1014.3 hPa | 0 mm | - | - | - |
| 1778147978 | 6.11° C | 80% | 1014.3 hPa | 0 mm | - | - | - |
* Rain latest hour (hover to see other rain measurements)
** Current wind speed in m/s (hover to see current wind gust speed)